Time;durP1;ratioP1;P1;durP2;ratioP2;P2;SDS_P1;SDS_P2;PMS_P1;PMS_P2;Temp;Humidity;BMP_temperature;BMP_pressure;BME280_temperature;BME280_humidity;BME280_pressure;Samples;Min_cycle;Max_cycle;Signal;HPM_P1;HPM_P2
2023/04/19 00:02:18;;;;;;;;;33.00;26.00;;;;;12.84;60.00;101651.38;5039313;28;45410;-48
2023/04/19 00:04:44;;;;;;;;;32.33;27.33;;;;;12.83;60.68;101647.88;5038924;28;45807;-46
2023/04/19 00:07:10;;;;;;;;;24.67;23.67;;;;;12.82;60.55;101656.88;5039028;28;46214;-46
2023/04/19 00:09:35;;;;;;;;;37.33;27.33;;;;;12.81;60.78;101648.97;5038954;28;45223;-46
2023/04/19 00:12:01;;;;;;;;;32.00;27.00;;;;;12.81;60.12;101655.19;5039059;28;45417;-46
2023/04/19 00:14:27;;;;;;;;;35.00;24.67;;;;;12.81;60.23;101654.31;5039400;28;45370;-47
2023/04/19 00:16:52;;;;;;;;;30.00;24.00;;;;;12.69;60.59;101638.44;5038982;28;46232;-48
2023/04/19 00:19:18;;;;;;;;;25.00;23.00;;;;;12.82;60.35;101656.03;5039127;28;45224;-46
2023/04/19 00:21:43;;;;;;;;;31.67;24.00;;;;;12.83;60.30;101663.06;5021014;28;45341;-47
2023/04/19 00:24:08;;;;;;;;;33.67;24.67;;;;;12.80;60.13;101649.97;5039204;28;45396;-48
2023/04/19 00:26:34;;;;;;;;;35.67;29.33;;;;;12.87;60.30;101657.28;5038674;28;46191;-47
2023/04/19 00:28:59;;;;;;;;;31.33;26.00;;;;;12.83;60.06;101645.19;5038649;28;45197;-47
2023/04/19 00:31:25;;;;;;;;;30.33;27.33;;;;;12.91;60.22;101652.53;5038889;28;45387;-48
2023/04/19 00:33:50;;;;;;;;;37.33;30.67;;;;;12.92;59.99;101652.38;5038927;28;45367;-47
2023/04/19 00:36:15;;;;;;;;;21.33;18.33;;;;;12.93;59.90;101651.38;5038382;28;46948;-46
2023/04/19 00:38:41;;;;;;;;;38.33;27.33;;;;;12.83;59.71;101631.00;5038641;28;45374;-46
2023/04/19 00:41:06;;;;;;;;;29.67;20.67;;;;;12.92;60.09;101654.19;5038498;28;45299;-47
2023/04/19 00:43:31;;;;;;;;;23.67;19.67;;;;;12.87;59.89;101651.13;5038527;28;45383;-48
2023/04/19 00:45:57;;;;;;;;;21.67;21.33;;;;;12.78;60.05;101641.28;5038382;28;46192;-48
2023/04/19 00:48:23;;;;;;;;;29.00;22.33;;;;;12.80;60.09;101647.31;5037304;28;45369;-46
2023/04/19 00:50:48;;;;;;;;;29.67;23.67;;;;;12.66;60.18;101633.38;5038678;28;45655;-46
2023/04/19 00:53:14;;;;;;;;;23.33;20.00;;;;;12.70;59.83;101653.47;5039437;28;45331;-46
2023/04/19 00:55:41;;;;;;;;;28.67;20.67;;;;;12.66;60.14;101665.41;5041608;28;46273;-48
2023/04/19 00:58:07;;;;;;;;;20.67;19.33;;;;;12.59;60.67;101648.25;5041724;28;45418;-46
2023/04/19 01:00:34;;;;;;;;;28.00;24.00;;;;;12.58;60.64;101651.91;5043155;28;45232;-46
2023/04/19 01:02:59;;;;;;;;;18.00;15.67;;;;;12.54;61.27;101647.81;5042731;28;45385;-47
2023/04/19 01:05:25;;;;;;;;;20.00;19.00;;;;;12.55;60.50;101648.66;5040609;28;46097;-45
2023/04/19 01:07:51;;;;;;;;;27.67;18.33;;;;;12.53;60.97;101653.31;5041800;28;45379;-45
2023/04/19 01:10:17;;;;;;;;;25.33;19.00;;;;;12.51;61.03;101655.25;5020160;28;45321;-45
2023/04/19 01:12:42;;;;;;;;;27.33;23.67;;;;;12.48;61.08;101648.38;5038458;28;45561;-46
2023/04/19 01:15:08;;;;;;;;;23.33;21.00;;;;;12.44;60.88;101650.47;5037940;28;47148;-46
2023/04/19 01:17:33;;;;;;;;;24.00;19.67;;;;;12.39;60.66;101641.22;5037670;28;45319;-47
2023/04/19 01:20:00;;;;;;;;;18.33;18.33;;;;;12.42;60.58;101647.09;5037458;28;45331;-47
2023/04/19 01:22:27;;;;;;;;;27.67;20.33;;;;;12.36;61.11;101636.13;5038175;28;45379;-46
2023/04/19 01:24:52;;;;;;;;;25.33;18.67;;;;;12.26;61.24;101629.91;5037551;28;46325;-47
2023/04/19 01:27:18;;;;;;;;;23.00;20.00;;;;;12.35;61.00;101648.63;5037845;28;45204;-47
2023/04/19 01:29:44;;;;;;;;;17.67;16.00;;;;;12.29;61.42;101638.50;5037118;28;45308;-46
2023/04/19 01:32:09;;;;;;;;;28.00;21.00;;;;;12.30;61.55;101648.19;5038020;28;45210;-46
2023/04/19 01:34:35;;;;;;;;;22.33;18.00;;;;;12.27;61.61;101644.97;5036488;28;45387;-49
2023/04/19 01:37:00;;;;;;;;;25.67;18.33;;;;;12.28;61.43;101646.66;5037503;28;45300;-49
2023/04/19 01:39:26;;;;;;;;;17.00;15.67;;;;;12.25;61.28;101645.09;5037688;28;45447;-46
2023/04/19 01:41:51;;;;;;;;;23.00;17.00;;;;;12.25;61.68;101647.75;5037824;28;45328;-47
2023/04/19 01:44:16;;;;;;;;;26.67;22.67;;;;;12.21;61.45;101646.31;5037263;28;45887;-48
2023/04/19 01:46:42;;;;;;;;;23.00;18.00;;;;;12.19;61.72;101635.81;5037575;28;45389;-46
2023/04/19 01:49:08;;;;;;;;;21.67;16.33;;;;;12.18;61.58;101642.13;5037300;28;45385;-46
2023/04/19 01:51:33;;;;;;;;;27.67;22.67;;;;;12.17;61.40;101636.91;5037649;28;45335;-48
2023/04/19 01:54:00;;;;;;;;;20.67;19.00;;;;;12.13;61.73;101635.50;5037166;28;47160;-45
2023/04/19 01:56:25;;;;;;;;;23.00;17.67;;;;;12.14;61.78;101643.38;5037182;28;45216;-44
2023/04/19 01:58:51;;;;;;;;;18.33;13.67;;;;;12.14;61.45;101637.19;5037178;28;45229;-48
2023/04/19 02:01:16;;;;;;;;;21.67;18.00;;;;;12.10;61.52;101641.13;5037453;28;45422;-45
2023/04/19 02:03:41;;;;;;;;;24.67;20.00;;;;;12.02;61.55;101628.44;5036944;28;47202;-46
2023/04/19 02:06:11;;;;;;;;;21.00;18.00;;;;;12.04;62.19;101636.31;5037030;28;46124;-45
2023/04/19 02:08:37;;;;;;;;;23.00;18.00;;;;;12.03;61.89;101640.78;5037203;28;45324;-46
2023/04/19 02:11:10;;;;;;;;;21.00;18.00;;;;;11.99;61.61;101634.88;5037354;28;45393;-47
2023/04/19 02:13:36;;;;;;;;;22.67;18.00;;;;;11.97;62.03;101630.69;5036725;28;45351;-46
2023/04/19 02:16:02;;;;;;;;;22.33;17.67;;;;;11.94;62.02;101636.28;5037084;28;45372;-48
2023/04/19 02:18:30;;;;;;;;;23.00;18.67;;;;;11.91;62.21;101631.19;5019225;28;45474;-46
2023/04/19 02:20:57;;;;;;;;;20.67;17.00;;;;;11.88;61.50;101634.13;5037314;28;45313;-48
2023/04/19 02:23:23;;;;;;;;;19.00;16.67;;;;;11.85;61.81;101634.41;5037192;28;46198;-46
2023/04/19 02:25:48;;;;;;;;;18.67;16.67;;;;;11.70;61.65;101609.88;5037017;28;45308;-47
2023/04/19 02:28:14;;;;;;;;;21.33;18.33;;;;;11.82;62.22;101631.97;5037109;28;45430;-45
2023/04/19 02:30:39;;;;;;;;;18.67;18.00;;;;;11.79;62.44;101630.41;5037173;28;45331;-45
2023/04/19 02:33:05;;;;;;;;;23.67;17.00;;;;;11.78;61.46;101631.38;5036670;28;47266;-45
2023/04/19 02:35:30;;;;;;;;;18.67;17.00;;;;;11.74;61.71;101641.47;5036913;28;45883;-47
2023/04/19 02:37:55;;;;;;;;;18.67;14.00;;;;;11.71;62.42;101627.56;5036712;28;45331;-46
2023/04/19 02:40:22;;;;;;;;;21.33;18.00;;;;;11.72;62.36;101634.59;5036875;28;45481;-45
2023/04/19 02:42:48;;;;;;;;;24.33;17.00;;;;;11.70;62.78;101632.03;5036621;28;46405;-48
2023/04/19 02:45:13;;;;;;;;;15.00;10.00;;;;;11.68;62.35;101633.16;5036218;28;45462;-44
2023/04/19 02:47:38;;;;;;;;;16.67;14.33;;;;;11.67;62.13;101632.31;5036712;28;45819;-47
2023/04/19 02:50:05;;;;;;;;;18.67;15.67;;;;;11.65;62.01;101628.94;5036791;28;45372;-46
2023/04/19 02:52:30;;;;;;;;;19.67;15.00;;;;;11.62;62.17;101634.53;5036490;28;46014;-47
2023/04/19 02:54:55;;;;;;;;;17.67;14.33;;;;;11.59;62.84;101626.81;5036353;28;45328;-46
2023/04/19 02:57:21;;;;;;;;;18.33;16.33;;;;;11.59;61.88;101631.31;5036650;28;45502;-47
2023/04/19 02:59:46;;;;;;;;;19.00;16.33;;;;;11.56;62.79;101637.72;5036575;28;45374;-46
2023/04/19 03:02:11;;;;;;;;;16.33;14.00;;;;;11.52;63.04;101636.28;5036321;28;45273;-45
2023/04/19 03:04:37;;;;;;;;;24.67;17.00;;;;;11.51;62.55;101637.28;5035893;28;51092;-45
2023/04/19 03:07:02;;;;;;;;;21.00;19.00;;;;;11.49;63.42;101637.38;5018759;28;45451;-45
2023/04/19 03:09:27;;;;;;;;;22.67;20.33;;;;;11.47;62.69;101639.34;5036497;28;45336;-46
2023/04/19 03:11:53;;;;;;;;;23.33;17.33;;;;;11.37;63.34;101619.78;5036244;28;46081;-47
2023/04/19 03:14:18;;;;;;;;;19.67;16.00;;;;;11.45;62.66;101637.78;5036084;28;45379;-46
2023/04/19 03:16:43;;;;;;;;;28.67;15.33;;;;;11.38;62.94;101624.16;5036278;28;45228;-48
2023/04/19 03:19:09;;;;;;;;;20.00;18.67;;;;;11.42;63.18;101627.41;5036518;28;45494;-46
2023/04/19 03:21:34;;;;;;;;;21.67;19.67;;;;;11.34;63.74;101629.88;5035877;28;45380;-46
2023/04/19 03:24:00;;;;;;;;;30.00;21.00;;;;;11.37;63.54;101635.75;5036268;28;45307;-45
2023/04/19 03:26:25;;;;;;;;;18.00;16.00;;;;;11.35;63.46;101635.06;5036286;28;45400;-46
2023/04/19 03:28:51;;;;;;;;;21.00;17.33;;;;;11.33;63.95;101631.66;5036177;28;45337;-46
2023/04/19 03:31:17;;;;;;;;;25.00;19.33;;;;;11.33;63.09;101631.66;5035959;28;46167;-47
2023/04/19 03:33:42;;;;;;;;;21.33;17.33;;;;;11.33;63.45;101638.81;5038336;28;45429;-48
2023/04/19 03:36:08;;;;;;;;;21.33;20.00;;;;;11.30;64.05;101631.13;5039565;28;45445;-45
2023/04/19 03:38:33;;;;;;;;;19.67;17.00;;;;;11.23;63.52;101614.78;5039707;28;45465;-44
2023/04/19 03:40:58;;;;;;;;;20.33;18.00;;;;;11.28;63.38;101630.38;5039245;28;46032;-45
2023/04/19 03:43:24;;;;;;;;;18.00;14.00;;;;;11.28;63.48;101633.03;5039099;28;47048;-46
2023/04/19 03:45:49;;;;;;;;;23.33;19.00;;;;;11.24;63.71;101627.97;5039408;28;45454;-47
2023/04/19 03:48:15;;;;;;;;;24.67;17.00;;;;;11.25;63.41;101620.84;5039593;28;45255;-46
2023/04/19 03:50:40;;;;;;;;;23.00;18.67;;;;;11.23;63.62;101626.28;5039123;28;45357;-46
2023/04/19 03:53:05;;;;;;;;;18.33;18.00;;;;;11.22;63.89;101624.59;5039099;28;45290;-48
2023/04/19 03:55:31;;;;;;;;;18.33;18.00;;;;;11.20;62.25;101623.03;5039216;28;45276;-47
2023/04/19 03:57:56;;;;;;;;;23.00;18.67;;;;;11.19;64.28;101624.84;5039384;28;45548;-47
2023/04/19 04:00:22;;;;;;;;;30.00;19.00;;;;;11.17;64.00;101624.16;5038833;28;46170;-47
2023/04/19 04:02:47;;;;;;;;;27.33;20.67;;;;;11.15;64.21;101622.59;5039074;28;45235;-45
2023/04/19 04:05:12;;;;;;;;;23.00;21.33;;;;;11.08;64.27;101619.59;5039084;28;45367;-46
2023/04/19 04:07:38;;;;;;;;;28.33;20.00;;;;;11.12;64.06;101625.50;5038568;28;45454;-46
2023/04/19 04:10:04;;;;;;;;;21.00;18.33;;;;;11.05;64.53;101609.19;5038805;28;46090;-46
2023/04/19 04:12:29;;;;;;;;;20.00;18.00;;;;;11.00;64.08;101606.09;5039066;28;45189;-47
2023/04/19 04:14:54;;;;;;;;;21.00;15.67;;;;;11.00;64.79;101606.09;5038867;28;45520;-46
2023/04/19 04:17:20;;;;;;;;;23.33;17.33;;;;;11.09;64.50;101623.94;5039409;28;45209;-45
2023/04/19 04:19:45;;;;;;;;;25.67;20.00;;;;;11.04;64.26;101623.50;5038626;28;46949;-45
2023/04/19 04:22:11;;;;;;;;;22.33;20.00;;;;;11.09;64.39;101623.13;5038862;28;45410;-46
2023/04/19 04:24:40;;;;;;;;;25.00;20.00;;;;;11.07;64.77;101625.03;5039048;28;45474;-45
2023/04/19 04:27:09;;;;;;;;;30.33;21.33;;;;;11.05;64.53;101627.84;5038951;28;45391;-45
2023/04/19 04:29:36;;;;;;;;;17.00;15.00;;;;;11.05;64.44;101630.50;5038375;28;46107;-45
2023/04/19 04:32:02;;;;;;;;;23.33;18.33;;;;;11.06;64.13;101623.34;5038522;28;45388;-45
2023/04/19 04:34:28;;;;;;;;;24.33;20.00;;;;;11.05;65.03;101633.16;5038562;28;45482;-48
2023/04/19 04:36:53;;;;;;;;;26.00;17.67;;;;;11.06;64.75;101628.69;5038683;28;45349;-45
2023/04/19 04:39:19;;;;;;;;;25.00;18.67;;;;;11.04;64.80;101628.81;5038316;28;46603;-47
2023/04/19 04:41:45;;;;;;;;;27.67;18.33;;;;;11.04;64.60;101626.16;5038138;28;45372;-44
2023/04/19 04:44:11;;;;;;;;;25.67;22.33;;;;;11.05;65.02;101630.50;5037271;28;45271;-46
2023/04/19 04:46:36;;;;;;;;;29.67;21.00;;;;;11.05;64.97;101640.31;5038452;28;45594;-47
2023/04/19 04:49:02;;;;;;;;;24.33;20.67;;;;;11.05;64.84;101637.66;5038380;28;45391;-45
2023/04/19 04:51:27;;;;;;;;;21.67;18.33;;;;;11.01;65.52;101642.38;5038247;28;45448;-45
2023/04/19 04:53:52;;;;;;;;;22.00;20.67;;;;;10.99;65.17;101633.66;5038350;28;45302;-45
2023/04/19 04:56:18;;;;;;;;;27.67;23.33;;;;;11.00;64.86;101640.69;5038463;28;45319;-46
2023/04/19 04:58:44;;;;;;;;;26.00;21.33;;;;;11.02;65.18;101646.72;5037662;28;45359;-45
2023/04/19 05:01:09;;;;;;;;;30.00;24.67;;;;;11.02;64.97;101635.22;5037834;28;45425;-47
2023/04/19 05:03:34;;;;;;;;;25.33;20.00;;;;;10.94;65.41;101622.56;5038068;28;45166;-46
2023/04/19 05:06:00;;;;;;;;;24.00;18.00;;;;;11.03;64.56;101648.41;5038367;28;45163;-46
2023/04/19 05:08:26;;;;;;;;;24.33;17.00;;;;;11.02;64.45;101640.56;5037864;28;46224;-48
2023/04/19 05:10:51;;;;;;;;;26.75;22.75;;;;;11.00;64.76;101640.69;5037846;28;45559;-45
2023/04/19 05:13:17;;;;;;;;;30.00;21.67;;;;;10.96;64.77;101641.94;5038091;28;45252;-46
2023/04/19 05:15:42;;;;;;;;;27.67;18.67;;;;;10.94;65.15;101638.53;5020234;28;45488;-46
2023/04/19 05:18:07;;;;;;;;;23.33;19.67;;;;;10.96;65.39;101650.75;5037968;28;45557;-46
2023/04/19 05:20:33;;;;;;;;;23.00;19.33;;;;;10.98;65.23;101646.13;5037632;28;45427;-45
2023/04/19 05:23:00;;;;;;;;;28.67;24.33;;;;;10.99;64.88;101652.28;5037988;28;45384;-47
2023/04/19 05:25:26;;;;;;;;;30.33;22.67;;;;;10.99;65.05;101654.97;5038200;28;45467;-48
2023/04/19 05:27:51;;;;;;;;;28.67;22.67;;;;;11.01;65.08;101653.03;5037644;28;46185;-46
2023/04/19 05:30:17;;;;;;;;;30.25;25.25;;;;;11.01;65.52;101660.19;5037509;28;45452;-46
2023/04/19 05:32:42;;;;;;;;;27.67;21.00;;;;;10.97;65.00;101652.44;5037556;28;45335;-46
2023/04/19 05:35:08;;;;;;;;;38.33;25.33;;;;;11.00;65.66;101651.34;5037848;28;45268;-45
2023/04/19 05:37:35;;;;;;;;;30.00;22.33;;;;;10.98;65.19;101650.63;5033328;28;46061;-47
2023/04/19 05:40:04;;;;;;;;;30.67;26.67;;;;;10.87;65.54;101635.56;5017264;28;45481;-46
2023/04/19 05:42:29;;;;;;;;;21.33;17.67;;;;;10.91;64.93;101642.31;5016481;28;45449;-46
2023/04/19 05:44:55;;;;;;;;;24.67;21.67;;;;;11.04;65.21;101660.78;5017532;28;45478;-48
2023/04/19 05:47:20;;;;;;;;;31.00;20.00;;;;;11.06;64.53;101660.63;5017205;28;45569;-47
2023/04/19 05:49:45;;;;;;;;;24.67;20.33;;;;;11.02;65.66;101657.38;5017770;28;45296;-46
2023/04/19 05:52:11;;;;;;;;;30.33;25.67;;;;;11.05;64.88;101674.94;5017700;28;45543;-47
2023/04/19 05:54:36;;;;;;;;;28.00;24.00;;;;;11.06;65.47;101661.47;5017721;28;45304;-47
2023/04/19 05:57:02;;;;;;;;;28.00;19.00;;;;;11.08;65.16;101667.53;5016060;28;46874;-47
2023/04/19 05:59:27;;;;;;;;;26.67;23.00;;;;;11.08;64.79;101669.31;5017301;28;45550;-46
2023/04/19 06:01:54;;;;;;;;;37.00;26.67;;;;;11.17;64.61;101680.09;5016293;28;45305;-48
2023/04/19 06:04:20;;;;;;;;;26.67;21.33;;;;;11.18;65.11;101678.25;5017127;28;45230;-46
2023/04/19 06:06:45;;;;;;;;;25.67;22.00;;;;;11.20;65.08;101674.47;5016988;28;46111;-45
2023/04/19 06:09:12;;;;;;;;;45.25;38.75;;;;;11.26;65.00;101675.81;5017319;28;45363;-46
2023/04/19 06:11:38;;;;;;;;;40.75;30.50;;;;;11.32;64.47;101680.59;5017141;28;45410;-46
2023/04/19 06:14:04;;;;;;;;;28.50;26.00;;;;;11.24;63.97;101665.25;5017211;28;45272;-46
2023/04/19 06:16:29;;;;;;;;;29.67;25.00;;;;;11.34;64.10;101684.00;5016561;28;47061;-48
2023/04/19 06:18:55;;;;;;;;;36.67;24.33;;;;;11.39;64.26;101683.59;5016843;28;45467;-46
2023/04/19 06:21:21;;;;;;;;;29.00;25.33;;;;;11.41;64.36;101685.16;5017004;28;45332;-48
2023/04/19 06:23:46;;;;;;;;;32.67;26.33;;;;;11.42;63.98;101686.88;5017123;28;45432;-48
2023/04/19 06:26:11;;;;;;;;;24.00;22.00;;;;;11.36;64.02;101665.22;5016809;28;46269;-46
2023/04/19 06:28:37;;;;;;;;;28.33;25.00;;;;;11.54;64.60;101689.44;5016904;28;45617;-46
2023/04/19 06:31:02;;;;;;;;;26.00;18.00;;;;;11.58;63.94;101688.22;5016645;28;45450;-47
2023/04/19 06:33:28;;;;;;;;;25.33;20.67;;;;;11.61;63.39;101694.13;5017271;28;45384;-45
2023/04/19 06:35:53;;;;;;;;;28.00;25.67;;;;;11.63;63.49;101689.53;5016622;28;45427;-47
2023/04/19 06:38:18;;;;;;;;;31.67;25.67;;;;;11.61;63.47;101678.16;5016823;28;45467;-48
2023/04/19 06:40:44;;;;;;;;;30.00;22.33;;;;;11.66;63.24;101694.59;5016826;28;45344;-47
2023/04/19 06:43:09;;;;;;;;;26.33;23.33;;;;;11.71;63.90;101696.84;5017003;28;45356;-48
2023/04/19 06:45:35;;;;;;;;;32.00;23.67;;;;;11.79;63.56;101694.38;5016843;28;45906;-46
2023/04/19 06:48:00;;;;;;;;;23.00;20.33;;;;;11.87;63.06;101701.75;5016600;28;45418;-50
2023/04/19 06:50:26;;;;;;;;;28.67;22.00;;;;;11.89;63.28;101700.66;5016793;28;45408;-47
2023/04/19 06:52:52;;;;;;;;;29.00;22.67;;;;;11.96;62.57;101695.63;5017071;28;45434;-46
2023/04/19 06:55:17;;;;;;;;;35.33;26.33;;;;;12.03;62.58;101699.47;5015733;28;45438;-48
2023/04/19 06:57:42;;;;;;;;;37.33;26.67;;;;;12.13;62.30;101697.69;5015526;28;45383;-46
2023/04/19 07:00:09;;;;;;;;;42.25;33.50;;;;;12.20;62.33;101692.66;5016528;28;45382;-47
2023/04/19 07:02:34;;;;;;;;;30.33;24.67;;;;;12.31;62.24;101705.06;5016771;28;45397;-47
2023/04/19 07:05:00;;;;;;;;;25.33;22.67;;;;;12.47;62.00;101697.38;5016360;28;46507;-48
2023/04/19 07:07:25;;;;;;;;;26.33;20.33;;;;;13.32;61.12;101694.19;5017121;28;45290;-45
2023/04/19 07:09:51;;;;;;;;;22.00;21.67;;;;;14.50;58.28;101685.72;5019542;28;45923;-45
2023/04/19 07:12:16;;;;;;;;;27.33;24.33;;;;;15.74;55.03;101686.72;5020465;28;45319;-46
2023/04/19 07:14:41;;;;;;;;;28.67;22.33;;;;;16.78;52.30;101685.72;5020103;28;45337;-44
2023/04/19 07:17:07;;;;;;;;;23.00;21.00;;;;;17.62;50.37;101660.38;5028136;28;45467;-47
2023/04/19 07:19:34;;;;;;;;;27.33;23.00;;;;;18.57;46.79;101669.31;5039669;28;45308;-47
2023/04/19 07:21:59;;;;;;;;;27.67;23.33;;;;;19.15;45.45;101669.81;5040148;28;45499;-51
2023/04/19 07:24:26;;;;;;;;;26.67;22.67;;;;;19.60;46.71;101673.50;5039466;28;45473;-47
2023/04/19 07:26:52;;;;;;;;;31.33;22.00;;;;;19.89;44.15;101678.13;5039719;28;45333;-45
2023/04/19 07:29:17;;;;;;;;;29.33;21.33;;;;;20.48;43.82;101680.84;5039781;28;45437;-44
2023/04/19 07:31:43;;;;;;;;;23.00;23.00;;;;;20.92;42.60;101688.81;5039662;28;45461;-46
2023/04/19 07:34:09;;;;;;;;;24.67;20.67;;;;;21.48;41.18;101669.16;5021596;28;46180;-50
2023/04/19 07:36:35;;;;;;;;;23.67;20.67;;;;;22.07;39.92;101678.72;5039327;28;45405;-44
2023/04/19 07:39:01;;;;;;;;;27.00;24.33;;;;;22.50;39.36;101687.53;5039632;28;45290;-45
2023/04/19 07:41:26;;;;;;;;;26.67;22.00;;;;;22.85;39.00;101677.41;5039472;28;45234;-49
2023/04/19 07:43:52;;;;;;;;;22.67;21.33;;;;;23.10;38.60;101685.03;5039070;28;46287;-47
2023/04/19 07:46:17;;;;;;;;;26.75;24.00;;;;;23.27;37.67;101677.31;5039484;28;45224;-46
2023/04/19 07:48:43;;;;;;;;;27.25;20.50;;;;;23.41;36.53;101678.97;5039255;28;45571;-46
2023/04/19 07:51:15;;;;;;;;;26.75;22.00;;;;;23.39;37.81;101678.34;5039436;28;45398;-44
2023/04/19 07:53:42;;;;;;;;;23.50;20.50;;;;;23.11;37.20;101679.38;5039302;28;45259;-48
2023/04/19 07:56:08;;;;;;;;;27.00;21.25;;;;;22.89;37.84;101686.81;5039052;28;45223;-47
2023/04/19 07:58:38;;;;;;;;;22.75;21.75;;;;;22.71;38.20;101672.97;5039501;28;45288;-44
2023/04/19 08:01:04;;;;;;;;;24.75;20.75;;;;;22.57;37.45;101668.56;5039564;28;45399;-46
2023/04/19 08:03:30;;;;;;;;;24.00;22.00;;;;;22.60;37.95;101674.44;5038853;28;47054;-44
2023/04/19 08:05:56;;;;;;;;;17.25;14.25;;;;;22.51;38.71;101667.50;5039056;28;45394;-44
2023/04/19 08:08:23;;;;;;;;;25.75;20.25;;;;;22.56;41.21;101669.63;5038926;28;45282;-44
2023/04/19 08:10:48;;;;;;;;;24.75;22.00;;;;;22.78;38.64;101675.72;5039223;28;45423;-45
2023/04/19 08:13:14;;;;;;;;;24.25;21.25;;;;;22.98;38.07;101670.38;5038656;28;46242;-46
2023/04/19 08:15:39;;;;;;;;;21.00;19.00;;;;;23.28;37.87;101674.38;5038770;28;45403;-48
2023/04/19 08:18:05;;;;;;;;;18.75;17.25;;;;;23.47;37.24;101666.44;5038332;28;45280;-47
2023/04/19 08:20:31;;;;;;;;;22.00;17.75;;;;;23.65;38.24;101678.38;5038850;28;45378;-48
2023/04/19 08:22:56;;;;;;;;;23.00;21.50;;;;;23.93;40.11;101671.00;5038595;28;46593;-47
2023/04/19 08:25:25;;;;;;;;;23.25;20.00;;;;;24.02;37.85;101673.28;5038726;28;45339;-46
2023/04/19 08:27:51;;;;;;;;;24.50;22.75;;;;;24.17;38.14;101664.88;5038847;28;45401;-47
2023/04/19 08:30:16;;;;;;;;;16.00;15.50;;;;;25.30;33.79;101675.19;5039157;28;45321;-47
2023/04/19 08:32:41;;;;;;;;;26.50;22.50;;;;;26.85;35.10;101658.59;5038463;28;45348;-47
2023/04/19 08:35:07;;;;;;;;;23.25;19.75;;;;;28.90;29.63;101659.38;5020798;28;45254;-47
2023/04/19 08:37:33;;;;;;;;;25.75;23.25;;;;;30.82;27.75;101653.34;5039010;28;45289;-47
2023/04/19 08:39:58;;;;;;;;;22.50;17.75;;;;;32.17;25.46;101657.63;5038648;28;45174;-46
2023/04/19 08:42:23;;;;;;;;;19.75;19.50;;;;;33.07;23.92;101649.84;5038315;28;52310;-48
2023/04/19 08:44:49;;;;;;;;;20.25;16.25;;;;;33.78;25.81;101654.47;5038641;28;45373;-46
2023/04/19 08:47:15;;;;;;;;;23.60;17.80;;;;;34.45;22.56;101655.03;5038572;28;45229;-50
2023/04/19 08:49:42;;;;;;;;;19.00;16.75;;;;;35.16;23.82;101648.22;5038727;28;45243;-47
2023/04/19 08:52:11;;;;;;;;;17.00;15.60;;;;;35.89;20.17;101652.72;5038251;28;46433;-47
2023/04/19 08:54:37;;;;;;;;;21.40;17.60;;;;;36.57;20.55;101655.19;5038359;28;45321;-49
2023/04/19 08:57:04;;;;;;;;;19.40;16.80;;;;;37.27;19.74;101657.13;5038505;28;45308;-46
2023/04/19 08:59:29;;;;;;;;;20.60;18.20;;;;;37.84;19.26;101652.19;5038615;28;45367;-45
2023/04/19 09:01:58;;;;;;;;;17.50;17.00;;;;;38.51;18.90;101637.69;5038157;28;46343;-45
2023/04/19 09:04:24;;;;;;;;;18.40;16.20;;;;;39.00;18.41;101654.59;5037848;28;45520;-46
2023/04/19 09:06:49;;;;;;;;;19.00;15.80;;;;;39.34;17.06;101645.66;5038292;28;45484;-47
2023/04/19 09:09:20;;;;;;;;;22.25;18.50;;;;;39.82;17.64;101648.53;5038396;28;45326;-49
2023/04/19 09:11:46;;;;;;;;;18.20;18.20;;;;;40.41;16.95;101639.75;5038021;28;46337;-46
2023/04/19 09:14:14;;;;;;;;;18.75;16.50;;;;;40.59;19.33;101651.78;5037985;28;45441;-46
2023/04/19 09:16:40;;;;;;;;;19.00;17.20;;;;;40.40;16.55;101654.88;5038299;28;45304;-46
2023/04/19 09:19:07;;;;;;;;;17.50;15.75;;;;;40.67;17.40;101650.97;5038170;28;45316;-46
2023/04/19 09:21:33;;;;;;;;;19.00;14.60;;;;;40.82;16.40;101650.44;5037694;28;47024;-48
2023/04/19 09:23:59;;;;;;;;;22.50;18.00;;;;;41.17;18.32;101644.81;5036560;28;45431;-48
2023/04/19 09:26:28;;;;;;;;;16.20;14.80;;;;;41.28;17.03;101646.09;5037868;28;45229;-48
2023/04/19 09:29:01;;;;;;;;;22.60;18.80;;;;;41.20;18.47;101648.91;5038254;28;45443;-46
2023/04/19 09:31:27;;;;;;;;;16.80;15.80;;;;;40.94;16.14;101647.00;5036927;28;45316;-45
2023/04/19 09:33:54;;;;;;;;;15.60;15.60;;;;;41.46;15.94;101637.69;5036058;28;45331;-48
2023/04/19 09:36:27;;;;;;;;;18.20;14.00;;;;;42.09;15.54;101635.88;5037814;28;45331;-44
2023/04/19 09:38:52;;;;;;;;;19.00;16.00;;;;;42.14;14.62;101627.28;5037821;28;45330;-46
2023/04/19 09:41:18;;;;;;;;;14.50;14.00;;;;;42.44;15.79;101625.28;5037564;28;47030;-46
2023/04/19 09:43:43;;;;;;;;;16.00;14.50;;;;;42.91;15.09;101627.81;5037441;28;45465;-44
2023/04/19 09:46:28;;;;;;;;;18.25;17.00;;;;;43.05;15.47;101619.94;5037627;28;45399;-46
2023/04/19 09:48:54;;;;;;;;;16.00;16.00;;;;;43.29;14.23;101613.56;5037532;28;45383;-48
2023/04/19 09:51:20;;;;;;;;;15.50;13.50;;;;;43.30;16.76;101612.41;5036915;28;45342;-49
2023/04/19 09:53:47;;;;;;;;;14.40;13.60;;;;;42.97;14.60;101615.22;5036883;28;45358;-46
2023/04/19 09:56:12;;;;;;;;;15.40;14.60;;;;;43.37;14.61;101608.22;5037553;28;45404;-47
2023/04/19 09:58:38;;;;;;;;;16.00;14.50;;;;;43.45;14.52;101604.47;5037936;28;45224;-45
2023/04/19 10:01:04;;;;;;;;;16.25;14.50;;;;;43.97;15.22;101612.19;5037387;28;46177;-47
2023/04/19 10:03:30;;;;;;;;;19.00;13.40;;;;;44.30;14.81;101607.22;5037387;28;45295;-48
2023/04/19 10:05:56;;;;;;;;;13.20;13.20;;;;;44.47;13.71;101599.66;5037381;28;45476;-46
2023/04/19 10:08:23;;;;;;;;;13.75;12.50;;;;;44.42;14.21;101606.34;5037731;28;45297;-49
2023/04/19 10:10:53;;;;;;;;;15.00;14.20;;;;;44.31;13.27;101602.41;5037276;28;45419;-48
2023/04/19 10:13:22;;;;;;;;;11.60;11.60;;;;;44.60;13.71;101603.22;5036807;28;45653;-47
2023/04/19 10:15:47;;;;;;;;;17.40;15.80;;;;;44.92;12.83;101590.88;5037490;28;45548;-49
2023/04/19 10:18:13;;;;;;;;;12.50;12.50;;;;;45.24;14.25;101588.13;5037647;28;45489;-47
2023/04/19 10:20:49;;;;;;;;;13.25;12.25;;;;;44.87;14.50;101591.16;5036729;28;45427;-47
2023/04/19 10:23:15;;;;;;;;;18.60;13.00;;;;;44.19;13.45;101585.59;5037150;28;45411;-47
2023/04/19 10:25:46;;;;;;;;;13.80;12.00;;;;;44.14;12.86;101588.66;5037358;28;45476;-50
2023/04/19 10:28:11;;;;;;;;;11.60;9.00;;;;;44.02;13.62;101595.09;5037457;28;45358;-46
2023/04/19 10:30:52;;;;;;;;;14.00;14.00;;;;;43.75;14.99;101591.88;5037137;28;47246;-49
2023/04/19 10:33:24;;;;;;;;;17.80;13.40;;;;;43.79;13.90;101583.56;5036869;28;45381;-50
2023/04/19 10:35:49;;;;;;;;;21.80;16.40;;;;;43.62;13.83;101587.47;5036925;28;45367;-47
2023/04/19 10:38:15;;;;;;;;;17.50;14.75;;;;;43.29;14.87;101591.16;5037317;28;45348;-49
2023/04/19 10:41:00;;;;;;;;;17.00;16.25;;;;;43.00;14.48;101582.94;5036843;28;46075;-49
2023/04/19 10:43:28;;;;;;;;;13.20;10.60;;;;;42.99;13.90;101581.31;5039066;28;45448;-47
2023/04/19 10:45:54;;;;;;;;;12.40;11.40;;;;;43.30;15.27;101569.56;5040627;28;45226;-47
2023/04/19 10:48:26;;;;;;;;;17.60;15.00;;;;;43.90;14.46;101570.72;5040942;28;45516;-47
2023/04/19 10:51:04;;;;;;;;;29.60;26.00;;;;;43.80;14.31;101586.03;5040294;28;45554;-52
2023/04/19 10:53:51;;;;;;;;;15.80;15.60;;;;;43.64;14.50;101576.69;5040458;28;45377;-47
2023/04/19 10:56:19;;;;;;;;;14.20;14.20;;;;;43.24;14.17;101566.19;5040321;28;45307;-48
2023/04/19 10:59:00;;;;;;;;;17.60;15.80;;;;;41.95;15.00;101571.03;5040649;28;45386;-46
2023/04/19 11:01:39;;;;;;;;;15.20;15.20;;;;;42.09;15.40;101564.00;5040276;28;45260;-49
2023/04/19 11:04:08;;;;;;;;;14.60;12.60;;;;;42.04;14.88;101569.81;5039864;28;45420;-49
2023/04/19 11:06:34;;;;;;;;;15.00;13.60;;;;;42.31;15.44;101560.09;5040328;28;45182;-50